sensor_id;sensor_type;location;lat;lon;timestamp;temperature;humidity
10536;DHT22;5316;49.538;8.352;2024-01-30T00:00:22;3.60;99.90
10536;DHT22;5316;49.538;8.352;2024-01-30T00:02:49;3.60;99.90
10536;DHT22;5316;49.538;8.352;2024-01-30T00:05:16;3.60;99.90
10536;DHT22;5316;49.538;8.352;2024-01-30T00:07:42;3.60;99.90
10536;DHT22;5316;49.538;8.352;2024-01-30T00:10:09;3.60;99.90
10536;DHT22;5316;49.538;8.352;2024-01-30T00:12:36;3.60;99.90
10536;DHT22;5316;49.538;8.352;2024-01-30T00:15:05;3.60;99.90
10536;DHT22;5316;49.538;8.352;2024-01-30T00:17:35;3.60;99.90
10536;DHT22;5316;49.538;8.352;2024-01-30T00:20:02;3.60;99.90
10536;DHT22;5316;49.538;8.352;2024-01-30T00:22:30;3.60;99.90
10536;DHT22;5316;49.538;8.352;2024-01-30T00:24:57;3.60;99.90
10536;DHT22;5316;49.538;8.352;2024-01-30T00:27:25;3.60;99.90
10536;DHT22;5316;49.538;8.352;2024-01-30T00:29:52;3.60;99.90
10536;DHT22;5316;49.538;8.352;2024-01-30T00:32:20;3.70;99.90
10536;DHT22;5316;49.538;8.352;2024-01-30T00:34:48;3.70;99.90
10536;DHT22;5316;49.538;8.352;2024-01-30T00:37:15;3.70;99.90
10536;DHT22;5316;49.538;8.352;2024-01-30T00:39:42;3.70;99.90
10536;DHT22;5316;49.538;8.352;2024-01-30T00:42:09;3.70;99.90
10536;DHT22;5316;49.538;8.352;2024-01-30T00:44:35;3.70;99.90
10536;DHT22;5316;49.538;8.352;2024-01-30T00:47:04;3.70;99.90
10536;DHT22;5316;49.538;8.352;2024-01-30T00:49:32;3.70;99.90
10536;DHT22;5316;49.538;8.352;2024-01-30T00:51:59;3.70;99.90
10536;DHT22;5316;49.538;8.352;2024-01-30T00:54:26;3.70;99.90
10536;DHT22;5316;49.538;8.352;2024-01-30T00:56:52;3.70;99.90
10536;DHT22;5316;49.538;8.352;2024-01-30T00:59:19;3.80;99.90
10536;DHT22;5316;49.538;8.352;2024-01-30T01:01:46;3.70;99.90
10536;DHT22;5316;49.538;8.352;2024-01-30T01:04:13;3.80;99.90
10536;DHT22;5316;49.538;8.352;2024-01-30T01:06:41;3.80;99.90
10536;DHT22;5316;49.538;8.352;2024-01-30T01:09:09;3.80;99.90
10536;DHT22;5316;49.538;8.352;2024-01-30T01:11:36;3.70;99.90
10536;DHT22;5316;49.538;8.352;2024-01-30T01:14:04;3.70;99.90
10536;DHT22;5316;49.538;8.352;2024-01-30T01:16:31;3.70;99.90
10536;DHT22;5316;49.538;8.352;2024-01-30T01:18:57;3.70;99.90
10536;DHT22;5316;49.538;8.352;2024-01-30T01:21:25;3.70;99.90
10536;DHT22;5316;49.538;8.352;2024-01-30T01:23:53;3.70;99.90
10536;DHT22;5316;49.538;8.352;2024-01-30T01:26:20;3.70;99.90
10536;DHT22;5316;49.538;8.352;2024-01-30T01:28:48;3.60;99.90
10536;DHT22;5316;49.538;8.352;2024-01-30T01:31:15;3.60;99.90
10536;DHT22;5316;49.538;8.352;2024-01-30T01:33:43;3.50;99.90
10536;DHT22;5316;49.538;8.352;2024-01-30T01:36:09;3.50;99.90
10536;DHT22;5316;49.538;8.352;2024-01-30T01:38:36;3.40;99.90
10536;DHT22;5316;49.538;8.352;2024-01-30T01:41:04;3.40;99.90
10536;DHT22;5316;49.538;8.352;2024-01-30T01:43:31;3.40;99.90
10536;DHT22;5316;49.538;8.352;2024-01-30T01:45:58;3.30;99.90
10536;DHT22;5316;49.538;8.352;2024-01-30T01:48:24;3.30;99.90
10536;DHT22;5316;49.538;8.352;2024-01-30T01:50:52;3.40;99.90
10536;DHT22;5316;49.538;8.352;2024-01-30T01:53:19;3.40;99.90
10536;DHT22;5316;49.538;8.352;2024-01-30T01:55:46;3.40;99.90
10536;DHT22;5316;49.538;8.352;2024-01-30T01:58:15;3.40;99.90
10536;DHT22;5316;49.538;8.352;2024-01-30T02:00:42;3.40;99.90
10536;DHT22;5316;49.538;8.352;2024-01-30T02:03:10;3.40;99.90
10536;DHT22;5316;49.538;8.352;2024-01-30T02:05:38;3.30;99.90
10536;DHT22;5316;49.538;8.352;2024-01-30T02:08:06;3.30;99.90
10536;DHT22;5316;49.538;8.352;2024-01-30T02:10:33;3.30;99.90
10536;DHT22;5316;49.538;8.352;2024-01-30T02:13:00;3.20;99.90
10536;DHT22;5316;49.538;8.352;2024-01-30T02:15:28;3.20;99.90
10536;DHT22;5316;49.538;8.352;2024-01-30T02:17:55;3.10;99.90
10536;DHT22;5316;49.538;8.352;2024-01-30T02:20:23;3.10;99.90
10536;DHT22;5316;49.538;8.352;2024-01-30T02:22:52;3.00;99.90
10536;DHT22;5316;49.538;8.352;2024-01-30T02:25:20;3.00;99.90
10536;DHT22;5316;49.538;8.352;2024-01-30T02:27:56;3.00;99.90
10536;DHT22;5316;49.538;8.352;2024-01-30T02:30:22;3.00;99.90
10536;DHT22;5316;49.538;8.352;2024-01-30T02:32:49;2.90;99.90
10536;DHT22;5316;49.538;8.352;2024-01-30T02:35:16;3.00;99.90
10536;DHT22;5316;49.538;8.352;2024-01-30T02:37:42;2.90;99.90
10536;DHT22;5316;49.538;8.352;2024-01-30T02:40:11;2.90;99.90
10536;DHT22;5316;49.538;8.352;2024-01-30T02:42:37;2.90;99.90
10536;DHT22;5316;49.538;8.352;2024-01-30T02:45:05;2.90;99.90
10536;DHT22;5316;49.538;8.352;2024-01-30T02:47:31;2.90;99.90
10536;DHT22;5316;49.538;8.352;2024-01-30T02:49:58;2.90;99.90
10536;DHT22;5316;49.538;8.352;2024-01-30T02:52:25;2.90;99.90
10536;DHT22;5316;49.538;8.352;2024-01-30T02:54:51;2.90;99.90
10536;DHT22;5316;49.538;8.352;2024-01-30T02:57:19;2.90;99.90
10536;DHT22;5316;49.538;8.352;2024-01-30T02:59:46;2.90;99.90
10536;DHT22;5316;49.538;8.352;2024-01-30T03:02:13;2.90;99.90
10536;DHT22;5316;49.538;8.352;2024-01-30T03:04:40;2.90;99.90
10536;DHT22;5316;49.538;8.352;2024-01-30T03:07:07;2.90;99.90
10536;DHT22;5316;49.538;8.352;2024-01-30T03:09:34;2.90;99.90
10536;DHT22;5316;49.538;8.352;2024-01-30T03:12:01;2.90;99.90
10536;DHT22;5316;49.538;8.352;2024-01-30T03:14:30;2.90;99.90
10536;DHT22;5316;49.538;8.352;2024-01-30T03:16:57;2.80;99.90
10536;DHT22;5316;49.538;8.352;2024-01-30T03:19:24;2.80;99.90
10536;DHT22;5316;49.538;8.352;2024-01-30T03:21:51;2.80;99.90
10536;DHT22;5316;49.538;8.352;2024-01-30T03:24:17;2.80;99.90
10536;DHT22;5316;49.538;8.352;2024-01-30T03:26:44;2.80;99.90
10536;DHT22;5316;49.538;8.352;2024-01-30T03:29:11;2.80;99.90
10536;DHT22;5316;49.538;8.352;2024-01-30T03:31:40;2.90;99.90
10536;DHT22;5316;49.538;8.352;2024-01-30T03:34:06;2.90;99.90
10536;DHT22;5316;49.538;8.352;2024-01-30T03:36:33;2.80;99.90
10536;DHT22;5316;49.538;8.352;2024-01-30T03:39:00;2.90;99.90
10536;DHT22;5316;49.538;8.352;2024-01-30T03:41:27;2.90;99.90
10536;DHT22;5316;49.538;8.352;2024-01-30T03:43:53;2.90;99.90
10536;DHT22;5316;49.538;8.352;2024-01-30T03:46:20;2.90;99.90
10536;DHT22;5316;49.538;8.352;2024-01-30T03:48:48;2.90;99.90
10536;DHT22;5316;49.538;8.352;2024-01-30T03:51:15;2.90;99.90
10536;DHT22;5316;49.538;8.352;2024-01-30T03:53:42;2.80;99.90
10536;DHT22;5316;49.538;8.352;2024-01-30T03:56:09;2.90;99.90
10536;DHT22;5316;49.538;8.352;2024-01-30T03:58:35;2.90;99.90
10536;DHT22;5316;49.538;8.352;2024-01-30T04:01:02;2.90;99.90
10536;DHT22;5316;49.538;8.352;2024-01-30T04:03:29;2.80;99.90
10536;DHT22;5316;49.538;8.352;2024-01-30T04:05:57;2.80;99.90
10536;DHT22;5316;49.538;8.352;2024-01-30T04:08:24;2.90;99.90
10536;DHT22;5316;49.538;8.352;2024-01-30T04:10:50;2.80;99.90
10536;DHT22;5316;49.538;8.352;2024-01-30T04:13:17;2.80;99.90
10536;DHT22;5316;49.538;8.352;2024-01-30T04:15:44;2.80;99.90
10536;DHT22;5316;49.538;8.352;2024-01-30T04:18:11;2.80;99.90
10536;DHT22;5316;49.538;8.352;2024-01-30T04:20:37;2.80;99.90
10536;DHT22;5316;49.538;8.352;2024-01-30T04:23:05;2.80;99.90
10536;DHT22;5316;49.538;8.352;2024-01-30T04:25:32;2.80;99.90
10536;DHT22;5316;49.538;8.352;2024-01-30T04:27:59;2.80;99.90
10536;DHT22;5316;49.538;8.352;2024-01-30T04:30:25;2.80;99.90
10536;DHT22;5316;49.538;8.352;2024-01-30T04:32:52;2.80;99.90
10536;DHT22;5316;49.538;8.352;2024-01-30T04:35:19;2.80;99.90
10536;DHT22;5316;49.538;8.352;2024-01-30T04:37:48;2.80;99.90
10536;DHT22;5316;49.538;8.352;2024-01-30T04:40:16;2.80;99.90
10536;DHT22;5316;49.538;8.352;2024-01-30T04:42:44;2.80;99.90
10536;DHT22;5316;49.538;8.352;2024-01-30T04:45:11;2.80;99.90
10536;DHT22;5316;49.538;8.352;2024-01-30T04:47:38;2.80;99.90
10536;DHT22;5316;49.538;8.352;2024-01-30T04:50:06;2.80;99.90
10536;DHT22;5316;49.538;8.352;2024-01-30T04:52:34;2.80;99.90
10536;DHT22;5316;49.538;8.352;2024-01-30T04:55:01;2.80;99.90
10536;DHT22;5316;49.538;8.352;2024-01-30T04:57:29;2.80;99.90
10536;DHT22;5316;49.538;8.352;2024-01-30T04:59:56;2.80;99.90
10536;DHT22;5316;49.538;8.352;2024-01-30T05:02:23;2.80;99.90
10536;DHT22;5316;49.538;8.352;2024-01-30T05:04:48;2.90;99.90
10536;DHT22;5316;49.538;8.352;2024-01-30T05:07:15;2.90;99.90
10536;DHT22;5316;49.538;8.352;2024-01-30T05:09:42;3.00;99.90
10536;DHT22;5316;49.538;8.352;2024-01-30T05:12:08;3.00;99.90
10536;DHT22;5316;49.538;8.352;2024-01-30T05:14:36;3.00;99.90
10536;DHT22;5316;49.538;8.352;2024-01-30T05:17:03;3.00;99.90
10536;DHT22;5316;49.538;8.352;2024-01-30T05:19:30;3.00;99.90
10536;DHT22;5316;49.538;8.352;2024-01-30T05:21:57;3.00;99.90
10536;DHT22;5316;49.538;8.352;2024-01-30T05:24:24;3.00;99.90
10536;DHT22;5316;49.538;8.352;2024-01-30T05:26:51;3.00;99.90
10536;DHT22;5316;49.538;8.352;2024-01-30T05:29:17;3.00;99.90
10536;DHT22;5316;49.538;8.352;2024-01-30T05:31:45;3.00;99.90
10536;DHT22;5316;49.538;8.352;2024-01-30T05:34:12;3.00;99.90
10536;DHT22;5316;49.538;8.352;2024-01-30T05:36:39;3.00;99.90
10536;DHT22;5316;49.538;8.352;2024-01-30T05:39:06;3.00;99.90
10536;DHT22;5316;49.538;8.352;2024-01-30T05:41:32;3.10;99.90
10536;DHT22;5316;49.538;8.352;2024-01-30T05:43:59;3.10;99.90
10536;DHT22;5316;49.538;8.352;2024-01-30T05:46:26;3.10;99.90
10536;DHT22;5316;49.538;8.352;2024-01-30T05:48:54;3.10;99.90
10536;DHT22;5316;49.538;8.352;2024-01-30T05:51:20;3.10;99.90
10536;DHT22;5316;49.538;8.352;2024-01-30T05:53:47;3.20;99.90
10536;DHT22;5316;49.538;8.352;2024-01-30T05:56:14;3.20;99.90
10536;DHT22;5316;49.538;8.352;2024-01-30T05:58:41;3.20;99.90
10536;DHT22;5316;49.538;8.352;2024-01-30T06:01:08;3.20;99.90
10536;DHT22;5316;49.538;8.352;2024-01-30T06:03:35;3.20;99.90
10536;DHT22;5316;49.538;8.352;2024-01-30T06:06:04;3.20;99.90
10536;DHT22;5316;49.538;8.352;2024-01-30T06:08:30;3.20;99.90
10536;DHT22;5316;49.538;8.352;2024-01-30T06:10:57;3.30;99.90
10536;DHT22;5316;49.538;8.352;2024-01-30T06:13:24;3.30;99.90
10536;DHT22;5316;49.538;8.352;2024-01-30T06:15:50;3.30;99.90
10536;DHT22;5316;49.538;8.352;2024-01-30T06:18:17;3.30;99.90
10536;DHT22;5316;49.538;8.352;2024-01-30T06:20:44;3.30;99.90
10536;DHT22;5316;49.538;8.352;2024-01-30T06:23:12;3.30;99.90
10536;DHT22;5316;49.538;8.352;2024-01-30T06:25:40;3.30;99.90
10536;DHT22;5316;49.538;8.352;2024-01-30T06:28:09;3.30;99.90
10536;DHT22;5316;49.538;8.352;2024-01-30T06:30:35;3.30;99.90
10536;DHT22;5316;49.538;8.352;2024-01-30T06:33:02;3.30;99.90
10536;DHT22;5316;49.538;8.352;2024-01-30T06:35:30;3.30;99.90
10536;DHT22;5316;49.538;8.352;2024-01-30T06:37:57;3.30;99.90
10536;DHT22;5316;49.538;8.352;2024-01-30T06:40:25;3.30;99.90
10536;DHT22;5316;49.538;8.352;2024-01-30T06:42:52;3.30;99.90
10536;DHT22;5316;49.538;8.352;2024-01-30T06:45:19;3.30;99.90
10536;DHT22;5316;49.538;8.352;2024-01-30T06:47:45;3.30;99.90
10536;DHT22;5316;49.538;8.352;2024-01-30T06:50:12;3.30;99.90
10536;DHT22;5316;49.538;8.352;2024-01-30T06:52:39;3.30;99.90
10536;DHT22;5316;49.538;8.352;2024-01-30T06:55:06;3.30;99.90
10536;DHT22;5316;49.538;8.352;2024-01-30T06:57:34;3.30;99.90
10536;DHT22;5316;49.538;8.352;2024-01-30T07:00:01;3.30;99.90
10536;DHT22;5316;49.538;8.352;2024-01-30T07:02:28;3.20;99.90
10536;DHT22;5316;49.538;8.352;2024-01-30T07:04:54;3.20;99.90
10536;DHT22;5316;49.538;8.352;2024-01-30T07:07:21;3.20;99.90
10536;DHT22;5316;49.538;8.352;2024-01-30T07:09:48;3.20;99.90
10536;DHT22;5316;49.538;8.352;2024-01-30T07:12:17;3.20;99.90
10536;DHT22;5316;49.538;8.352;2024-01-30T07:14:46;3.20;99.90
10536;DHT22;5316;49.538;8.352;2024-01-30T07:17:13;3.20;99.90
10536;DHT22;5316;49.538;8.352;2024-01-30T07:19:39;3.20;99.90
10536;DHT22;5316;49.538;8.352;2024-01-30T07:22:07;3.20;99.90
10536;DHT22;5316;49.538;8.352;2024-01-30T07:24:34;3.30;99.90
10536;DHT22;5316;49.538;8.352;2024-01-30T07:27:01;3.30;99.90
10536;DHT22;5316;49.538;8.352;2024-01-30T07:29:27;3.30;99.90
10536;DHT22;5316;49.538;8.352;2024-01-30T07:31:55;3.30;99.90
10536;DHT22;5316;49.538;8.352;2024-01-30T07:34:22;3.40;99.90
10536;DHT22;5316;49.538;8.352;2024-01-30T07:36:49;3.40;99.90
10536;DHT22;5316;49.538;8.352;2024-01-30T07:39:15;3.40;99.90
10536;DHT22;5316;49.538;8.352;2024-01-30T07:41:42;3.40;99.90
10536;DHT22;5316;49.538;8.352;2024-01-30T07:44:09;3.40;99.90
10536;DHT22;5316;49.538;8.352;2024-01-30T07:46:36;3.40;99.90
10536;DHT22;5316;49.538;8.352;2024-01-30T07:49:04;3.40;99.90
10536;DHT22;5316;49.538;8.352;2024-01-30T07:51:30;3.50;99.90
10536;DHT22;5316;49.538;8.352;2024-01-30T07:53:58;3.50;99.90
10536;DHT22;5316;49.538;8.352;2024-01-30T07:56:25;3.50;99.90
10536;DHT22;5316;49.538;8.352;2024-01-30T07:58:52;3.50;99.90
10536;DHT22;5316;49.538;8.352;2024-01-30T08:01:19;3.50;99.90
10536;DHT22;5316;49.538;8.352;2024-01-30T08:03:46;3.50;99.90
10536;DHT22;5316;49.538;8.352;2024-01-30T08:06:14;3.50;99.90
10536;DHT22;5316;49.538;8.352;2024-01-30T08:08:41;3.50;99.90
10536;DHT22;5316;49.538;8.352;2024-01-30T08:11:07;3.60;99.90
10536;DHT22;5316;49.538;8.352;2024-01-30T08:13:34;3.60;99.90
10536;DHT22;5316;49.538;8.352;2024-01-30T08:16:01;3.60;99.90
10536;DHT22;5316;49.538;8.352;2024-01-30T08:18:27;3.70;99.90
10536;DHT22;5316;49.538;8.352;2024-01-30T08:20:54;3.70;99.90
10536;DHT22;5316;49.538;8.352;2024-01-30T08:23:22;3.80;99.90
10536;DHT22;5316;49.538;8.352;2024-01-30T08:25:49;3.80;99.90
10536;DHT22;5316;49.538;8.352;2024-01-30T08:28:15;3.80;99.90
10536;DHT22;5316;49.538;8.352;2024-01-30T08:30:42;3.90;99.90
10536;DHT22;5316;49.538;8.352;2024-01-30T08:33:09;3.90;99.90
10536;DHT22;5316;49.538;8.352;2024-01-30T08:35:36;4.00;99.90
10536;DHT22;5316;49.538;8.352;2024-01-30T08:38:03;4.00;99.90
10536;DHT22;5316;49.538;8.352;2024-01-30T08:40:31;4.10;99.90
10536;DHT22;5316;49.538;8.352;2024-01-30T08:42:58;4.20;99.90
10536;DHT22;5316;49.538;8.352;2024-01-30T08:45:25;4.30;99.90
10536;DHT22;5316;49.538;8.352;2024-01-30T08:47:51;4.30;99.90
10536;DHT22;5316;49.538;8.352;2024-01-30T08:50:18;4.40;99.90
10536;DHT22;5316;49.538;8.352;2024-01-30T08:52:45;4.50;99.90
10536;DHT22;5316;49.538;8.352;2024-01-30T08:55:11;4.50;99.90
10536;DHT22;5316;49.538;8.352;2024-01-30T08:57:40;4.60;99.90
10536;DHT22;5316;49.538;8.352;2024-01-30T09:00:07;4.60;99.90
10536;DHT22;5316;49.538;8.352;2024-01-30T09:02:35;4.70;99.90
10536;DHT22;5316;49.538;8.352;2024-01-30T09:05:02;4.70;99.90
10536;DHT22;5316;49.538;8.352;2024-01-30T09:07:29;4.80;99.90
10536;DHT22;5316;49.538;8.352;2024-01-30T09:09:56;4.80;99.90
10536;DHT22;5316;49.538;8.352;2024-01-30T09:12:23;4.90;99.90
10536;DHT22;5316;49.538;8.352;2024-01-30T09:14:51;4.90;99.90
10536;DHT22;5316;49.538;8.352;2024-01-30T09:17:17;5.00;99.90
10536;DHT22;5316;49.538;8.352;2024-01-30T09:19:45;5.10;99.90
10536;DHT22;5316;49.538;8.352;2024-01-30T09:22:13;5.10;99.90
10536;DHT22;5316;49.538;8.352;2024-01-30T09:24:44;5.20;99.90
10536;DHT22;5316;49.538;8.352;2024-01-30T09:27:12;5.30;99.90
10536;DHT22;5316;49.538;8.352;2024-01-30T09:29:38;5.30;99.90
10536;DHT22;5316;49.538;8.352;2024-01-30T09:32:07;5.30;99.90
10536;DHT22;5316;49.538;8.352;2024-01-30T09:34:34;5.40;99.90
10536;DHT22;5316;49.538;8.352;2024-01-30T09:37:01;5.50;99.90
10536;DHT22;5316;49.538;8.352;2024-01-30T09:39:28;5.60;99.90
10536;DHT22;5316;49.538;8.352;2024-01-30T09:42:00;5.60;99.90
10536;DHT22;5316;49.538;8.352;2024-01-30T09:44:29;5.70;99.90
10536;DHT22;5316;49.538;8.352;2024-01-30T09:46:56;5.80;99.90
10536;DHT22;5316;49.538;8.352;2024-01-30T09:49:26;5.90;99.90
10536;DHT22;5316;49.538;8.352;2024-01-30T09:51:53;6.00;99.90
10536;DHT22;5316;49.538;8.352;2024-01-30T09:54:21;6.10;80.40
10536;DHT22;5316;49.538;8.352;2024-01-30T09:56:48;6.10;13.40
10536;DHT22;5316;49.538;8.352;2024-01-30T09:59:15;6.10;8.50
10536;DHT22;5316;49.538;8.352;2024-01-30T10:01:42;6.20;7.60
10536;DHT22;5316;49.538;8.352;2024-01-30T10:04:09;6.20;1.00
10536;DHT22;5316;49.538;8.352;2024-01-30T10:06:38;6.30;1.00
10536;DHT22;5316;49.538;8.352;2024-01-30T10:09:06;6.30;18.50
10536;DHT22;5316;49.538;8.352;2024-01-30T10:11:33;6.40;10.60
10536;DHT22;5316;49.538;8.352;2024-01-30T10:14:00;6.50;2.30
10536;DHT22;5316;49.538;8.352;2024-01-30T10:16:28;6.60;1.00
10536;DHT22;5316;49.538;8.352;2024-01-30T10:18:54;6.60;1.00
10536;DHT22;5316;49.538;8.352;2024-01-30T10:21:21;6.70;1.00
10536;DHT22;5316;49.538;8.352;2024-01-30T10:23:49;6.80;1.00
10536;DHT22;5316;49.538;8.352;2024-01-30T10:26:16;6.90;1.00
10536;DHT22;5316;49.538;8.352;2024-01-30T10:28:43;6.90;1.00
10536;DHT22;5316;49.538;8.352;2024-01-30T10:31:10;7.00;1.00
10536;DHT22;5316;49.538;8.352;2024-01-30T10:33:37;7.00;1.00
10536;DHT22;5316;49.538;8.352;2024-01-30T10:36:05;7.10;1.00
10536;DHT22;5316;49.538;8.352;2024-01-30T10:38:32;7.10;1.00
10536;DHT22;5316;49.538;8.352;2024-01-30T10:41:01;7.10;1.00
10536;DHT22;5316;49.538;8.352;2024-01-30T10:43:33;7.10;1.00
10536;DHT22;5316;49.538;8.352;2024-01-30T10:46:09;7.20;1.00
10536;DHT22;5316;49.538;8.352;2024-01-30T10:48:42;7.20;1.00
10536;DHT22;5316;49.538;8.352;2024-01-30T10:51:10;7.30;1.00
10536;DHT22;5316;49.538;8.352;2024-01-30T10:53:38;7.30;1.00
10536;DHT22;5316;49.538;8.352;2024-01-30T10:56:08;7.40;1.00
10536;DHT22;5316;49.538;8.352;2024-01-30T10:58:36;7.50;99.90
10536;DHT22;5316;49.538;8.352;2024-01-30T11:01:04;7.50;99.90
10536;DHT22;5316;49.538;8.352;2024-01-30T11:03:31;7.60;99.90
10536;DHT22;5316;49.538;8.352;2024-01-30T11:06:00;7.70;99.90
10536;DHT22;5316;49.538;8.352;2024-01-30T11:08:27;7.80;99.90
10536;DHT22;5316;49.538;8.352;2024-01-30T11:10:55;7.80;99.90
10536;DHT22;5316;49.538;8.352;2024-01-30T11:13:27;7.90;99.90
10536;DHT22;5316;49.538;8.352;2024-01-30T11:15:54;8.00;99.90
10536;DHT22;5316;49.538;8.352;2024-01-30T11:18:24;8.10;99.90
10536;DHT22;5316;49.538;8.352;2024-01-30T11:20:51;8.10;99.90
10536;DHT22;5316;49.538;8.352;2024-01-30T11:23:17;8.20;99.90
10536;DHT22;5316;49.538;8.352;2024-01-30T11:25:44;8.30;99.90
10536;DHT22;5316;49.538;8.352;2024-01-30T11:28:13;8.30;1.40
10536;DHT22;5316;49.538;8.352;2024-01-30T11:30:42;8.30;99.90
10536;DHT22;5316;49.538;8.352;2024-01-30T11:33:10;8.40;99.90
10536;DHT22;5316;49.538;8.352;2024-01-30T11:35:38;8.40;26.70
10536;DHT22;5316;49.538;8.352;2024-01-30T11:38:06;8.40;1.00
10536;DHT22;5316;49.538;8.352;2024-01-30T11:40:34;8.40;1.00
10536;DHT22;5316;49.538;8.352;2024-01-30T11:43:02;8.40;1.00
10536;DHT22;5316;49.538;8.352;2024-01-30T11:45:30;8.40;8.30
10536;DHT22;5316;49.538;8.352;2024-01-30T11:47:58;8.50;1.00
10536;DHT22;5316;49.538;8.352;2024-01-30T11:50:27;8.50;1.00
10536;DHT22;5316;49.538;8.352;2024-01-30T11:52:54;8.60;99.90
10536;DHT22;5316;49.538;8.352;2024-01-30T11:55:21;8.60;99.90
10536;DHT22;5316;49.538;8.352;2024-01-30T11:57:48;8.70;99.90
10536;DHT22;5316;49.538;8.352;2024-01-30T12:00:15;8.70;99.90
10536;DHT22;5316;49.538;8.352;2024-01-30T12:02:42;8.80;99.90
10536;DHT22;5316;49.538;8.352;2024-01-30T12:05:10;8.80;47.40
10536;DHT22;5316;49.538;8.352;2024-01-30T12:07:37;8.90;1.00
10536;DHT22;5316;49.538;8.352;2024-01-30T12:10:04;8.90;99.90
10536;DHT22;5316;49.538;8.352;2024-01-30T12:12:33;8.90;99.90
10536;DHT22;5316;49.538;8.352;2024-01-30T12:15:00;9.00;1.00
10536;DHT22;5316;49.538;8.352;2024-01-30T12:17:29;9.00;99.90
10536;DHT22;5316;49.538;8.352;2024-01-30T12:20:03;9.10;99.90
10536;DHT22;5316;49.538;8.352;2024-01-30T12:22:35;9.10;99.90
10536;DHT22;5316;49.538;8.352;2024-01-30T12:25:03;9.20;99.90
10536;DHT22;5316;49.538;8.352;2024-01-30T12:27:29;9.30;1.00
10536;DHT22;5316;49.538;8.352;2024-01-30T12:29:56;9.30;99.90
10536;DHT22;5316;49.538;8.352;2024-01-30T12:32:23;9.40;1.00
10536;DHT22;5316;49.538;8.352;2024-01-30T12:34:50;9.50;1.00
10536;DHT22;5316;49.538;8.352;2024-01-30T12:37:17;9.60;1.00
10536;DHT22;5316;49.538;8.352;2024-01-30T12:39:49;9.70;1.00
10536;DHT22;5316;49.538;8.352;2024-01-30T12:42:15;9.70;99.90
10536;DHT22;5316;49.538;8.352;2024-01-30T12:44:42;9.80;25.10
10536;DHT22;5316;49.538;8.352;2024-01-30T12:47:09;9.80;1.00
10536;DHT22;5316;49.538;8.352;2024-01-30T12:49:36;9.90;99.90
10536;DHT22;5316;49.538;8.352;2024-01-30T12:52:03;10.00;99.90
10536;DHT22;5316;49.538;8.352;2024-01-30T12:54:30;10.10;17.80
10536;DHT22;5316;49.538;8.352;2024-01-30T12:56:58;10.10;1.00
10536;DHT22;5316;49.538;8.352;2024-01-30T12:59:25;10.20;19.70
10536;DHT22;5316;49.538;8.352;2024-01-30T13:01:52;10.20;23.50
10536;DHT22;5316;49.538;8.352;2024-01-30T13:04:18;10.30;1.00
10536;DHT22;5316;49.538;8.352;2024-01-30T13:06:45;10.40;99.90
10536;DHT22;5316;49.538;8.352;2024-01-30T13:09:12;10.50;56.30
10536;DHT22;5316;49.538;8.352;2024-01-30T13:11:39;10.50;1.00
10536;DHT22;5316;49.538;8.352;2024-01-30T13:14:06;10.60;1.00
10536;DHT22;5316;49.538;8.352;2024-01-30T13:16:33;10.60;1.00
10536;DHT22;5316;49.538;8.352;2024-01-30T13:19:00;10.70;99.90
10536;DHT22;5316;49.538;8.352;2024-01-30T13:21:27;10.70;99.90
10536;DHT22;5316;49.538;8.352;2024-01-30T13:23:54;10.70;99.90
10536;DHT22;5316;49.538;8.352;2024-01-30T13:26:21;10.70;99.90
10536;DHT22;5316;49.538;8.352;2024-01-30T13:28:48;10.70;99.90
10536;DHT22;5316;49.538;8.352;2024-01-30T13:31:16;10.70;99.90
10536;DHT22;5316;49.538;8.352;2024-01-30T13:33:45;10.70;99.90
10536;DHT22;5316;49.538;8.352;2024-01-30T13:36:11;10.70;99.90
10536;DHT22;5316;49.538;8.352;2024-01-30T13:38:38;10.80;99.90
10536;DHT22;5316;49.538;8.352;2024-01-30T13:41:05;10.80;1.00
10536;DHT22;5316;49.538;8.352;2024-01-30T13:43:32;10.80;1.00
10536;DHT22;5316;49.538;8.352;2024-01-30T13:45:59;10.70;1.00
10536;DHT22;5316;49.538;8.352;2024-01-30T13:48:27;10.70;1.00
10536;DHT22;5316;49.538;8.352;2024-01-30T13:50:55;10.70;22.30
10536;DHT22;5316;49.538;8.352;2024-01-30T13:53:22;10.70;96.50
10536;DHT22;5316;49.538;8.352;2024-01-30T13:55:48;10.70;99.90
10536;DHT22;5316;49.538;8.352;2024-01-30T13:58:15;10.70;57.90
10536;DHT22;5316;49.538;8.352;2024-01-30T14:00:42;10.70;1.00
10536;DHT22;5316;49.538;8.352;2024-01-30T14:03:08;10.70;1.00
10536;DHT22;5316;49.538;8.352;2024-01-30T14:05:36;10.60;1.00
10536;DHT22;5316;49.538;8.352;2024-01-30T14:08:04;10.60;1.00
10536;DHT22;5316;49.538;8.352;2024-01-30T14:10:30;10.60;1.00
10536;DHT22;5316;49.538;8.352;2024-01-30T14:12:57;10.70;1.00
10536;DHT22;5316;49.538;8.352;2024-01-30T14:15:24;10.70;1.00
10536;DHT22;5316;49.538;8.352;2024-01-30T14:17:51;10.70;1.00
10536;DHT22;5316;49.538;8.352;2024-01-30T14:20:18;10.70;1.00
10536;DHT22;5316;49.538;8.352;2024-01-30T14:22:46;10.70;1.00
10536;DHT22;5316;49.538;8.352;2024-01-30T14:25:13;10.70;1.00
10536;DHT22;5316;49.538;8.352;2024-01-30T14:27:39;10.70;1.00
10536;DHT22;5316;49.538;8.352;2024-01-30T14:30:10;10.70;1.00
10536;DHT22;5316;49.538;8.352;2024-01-30T14:32:37;10.70;72.90
10536;DHT22;5316;49.538;8.352;2024-01-30T14:35:06;10.70;99.90
10536;DHT22;5316;49.538;8.352;2024-01-30T14:37:34;10.70;99.90
10536;DHT22;5316;49.538;8.352;2024-01-30T14:40:03;10.70;99.90
10536;DHT22;5316;49.538;8.352;2024-01-30T14:42:32;10.70;99.90
10536;DHT22;5316;49.538;8.352;2024-01-30T14:44:59;10.70;99.90
10536;DHT22;5316;49.538;8.352;2024-01-30T14:47:26;10.70;99.90
10536;DHT22;5316;49.538;8.352;2024-01-30T14:49:52;10.70;99.90
10536;DHT22;5316;49.538;8.352;2024-01-30T14:52:19;10.70;99.90
10536;DHT22;5316;49.538;8.352;2024-01-30T14:54:46;10.70;99.90
10536;DHT22;5316;49.538;8.352;2024-01-30T14:57:14;10.60;1.00
10536;DHT22;5316;49.538;8.352;2024-01-30T14:59:41;10.60;99.90
10536;DHT22;5316;49.538;8.352;2024-01-30T15:02:08;10.60;99.90
10536;DHT22;5316;49.538;8.352;2024-01-30T15:04:34;10.50;1.00
10536;DHT22;5316;49.538;8.352;2024-01-30T15:07:01;10.50;99.90
10536;DHT22;5316;49.538;8.352;2024-01-30T15:09:28;10.40;99.90
10536;DHT22;5316;49.538;8.352;2024-01-30T15:11:55;10.40;1.00
10536;DHT22;5316;49.538;8.352;2024-01-30T15:14:23;10.40;1.00
10536;DHT22;5316;49.538;8.352;2024-01-30T15:16:50;10.40;99.90
10536;DHT22;5316;49.538;8.352;2024-01-30T15:19:16;10.40;99.90
10536;DHT22;5316;49.538;8.352;2024-01-30T15:21:43;10.40;1.00
10536;DHT22;5316;49.538;8.352;2024-01-30T15:24:10;10.30;1.00
10536;DHT22;5316;49.538;8.352;2024-01-30T15:26:40;10.30;1.00
10536;DHT22;5316;49.538;8.352;2024-01-30T15:29:07;10.30;33.30
10536;DHT22;5316;49.538;8.352;2024-01-30T15:31:35;10.30;25.70
10536;DHT22;5316;49.538;8.352;2024-01-30T15:34:02;10.20;99.90
10536;DHT22;5316;49.538;8.352;2024-01-30T15:36:29;10.20;99.90
10536;DHT22;5316;49.538;8.352;2024-01-30T15:38:56;10.20;99.90
10536;DHT22;5316;49.538;8.352;2024-01-30T15:41:23;10.20;99.90
10536;DHT22;5316;49.538;8.352;2024-01-30T15:43:49;10.30;99.90
10536;DHT22;5316;49.538;8.352;2024-01-30T15:46:16;10.20;99.90
10536;DHT22;5316;49.538;8.352;2024-01-30T15:48:45;10.30;99.90
10536;DHT22;5316;49.538;8.352;2024-01-30T15:51:12;10.20;99.90
10536;DHT22;5316;49.538;8.352;2024-01-30T15:53:39;10.20;1.00
10536;DHT22;5316;49.538;8.352;2024-01-30T15:56:06;10.20;1.00
10536;DHT22;5316;49.538;8.352;2024-01-30T15:58:33;10.20;1.00
10536;DHT22;5316;49.538;8.352;2024-01-30T16:00:59;10.20;1.00